Time;durP1;ratioP1;P1;durP2;ratioP2;P2;SDS_P1;SDS_P2;PMS_P1;PMS_P2;Temp;Humidity;BMP_temperature;BMP_pressure;BME280_temperature;BME280_humidity;BME280_pressure;Samples;Min_cycle;Max_cycle;Signal;HPM_P1;HPM_P2
2024/01/05 00:02:46;;;;;;;18.90;7.70;;;;;;;5.66;100.00;99660.81;10416954;28;20107;-80
2024/01/05 00:07:47;;;;;;;16.80;6.22;;;;;;;5.55;100.00;99649.00;10405687;28;20553;-80
2024/01/05 00:12:47;;;;;;;16.23;5.78;;;;;;;5.28;100.00;99652.03;10420338;28;20040;-81
2024/01/05 00:17:48;;;;;;;10.40;6.10;;;;;;;5.02;100.00;99643.84;10432601;28;20136;-80
2024/01/05 00:22:48;;;;;;;20.38;6.35;;;;;;;4.85;100.00;99638.72;10466566;28;20069;-80
2024/01/05 00:27:52;;;;;;;15.02;4.78;;;;;;;4.78;100.00;99641.81;10457310;28;20131;-81
2024/01/05 00:32:53;;;;;;;8.88;3.75;;;;;;;4.61;100.00;99630.53;10472624;28;20056;-81
2024/01/05 00:37:56;;;;;;;13.90;3.88;;;;;;;4.45;100.00;99618.50;10466096;28;20115;-80
2024/01/05 00:42:56;;;;;;;18.02;5.40;;;;;;;4.38;100.00;99617.28;10483036;28;20044;-81
2024/01/05 00:47:57;;;;;;;13.85;5.18;;;;;;;4.45;100.00;99613.34;10442024;28;20068;-80
2024/01/05 00:52:57;;;;;;;7.63;3.45;;;;;;;4.42;100.00;99597.63;10468519;28;20128;-80
2024/01/05 00:57:58;;;;;;;8.93;5.18;;;;;;;4.28;100.00;99598.59;10434104;28;20099;-81
2024/01/05 01:02:58;;;;;;;12.45;4.60;;;;;;;4.09;100.00;99588.16;10476876;28;20114;-82
2024/01/05 01:08:00;;;;;;;10.45;3.95;;;;;;;3.95;100.00;99583.94;10452309;28;20132;-80
2024/01/05 01:13:01;;;;;;;14.27;5.80;;;;;;;3.71;100.00;99584.41;10404766;28;20517;-81
2024/01/05 01:18:02;;;;;;;9.82;5.60;;;;;;;3.63;100.00;99570.16;10424090;28;20041;-81
2024/01/05 01:23:02;;;;;;;15.35;5.82;;;;;;;3.55;100.00;99566.25;10420049;28;20053;-80
2024/01/05 01:28:04;;;;;;;11.82;5.13;;;;;;;3.53;100.00;99563.59;10403653;28;20045;-80
2024/01/05 01:33:04;;;;;;;56.37;12.80;;;;;;;3.48;100.00;99558.16;10436832;28;20357;-80
2024/01/05 01:38:05;;;;;;;7.25;4.78;;;;;;;3.44;100.00;99552.75;10455400;28;20060;-81
2024/01/05 01:43:05;;;;;;;7.30;4.53;;;;;;;3.31;100.00;99553.75;10407543;28;20132;-81
2024/01/05 01:48:06;;;;;;;10.15;5.60;;;;;;;3.32;100.00;99540.00;10419893;28;20123;-79
2024/01/05 01:53:06;;;;;;;9.63;6.00;;;;;;;3.32;100.00;99527.97;10464355;28;20043;-82
2024/01/05 01:58:07;;;;;;;10.25;4.47;;;;;;;3.26;100.00;99526.75;10452835;28;20048;-81
2024/01/05 02:03:08;;;;;;;30.27;9.18;;;;;;;3.31;100.00;99514.94;10447494;28;20094;-80
2024/01/05 02:08:08;;;;;;;9.27;5.43;;;;;;;3.29;100.00;99514.88;10468560;28;20044;-81
2024/01/05 02:13:09;;;;;;;16.50;7.90;;;;;;;3.16;100.00;99504.66;10460901;28;20063;-80
2024/01/05 02:18:13;;;;;;;5.22;3.15;;;;;;;3.20;100.00;99501.44;10464411;28;20128;-81
2024/01/05 02:23:24;;;;;;;7.60;3.80;;;;;;;3.44;100.00;99504.47;10471807;28;20078;-80
2024/01/05 02:28:25;;;;;;;8.18;4.05;;;;;;;3.66;100.00;99505.63;10440710;28;20045;-80
2024/01/05 02:33:25;;;;;;;8.18;4.88;;;;;;;3.73;100.00;99493.91;10433920;28;20033;-81
2024/01/05 02:38:26;;;;;;;12.50;5.68;;;;;;;3.65;100.00;99494.41;10445040;28;20116;-81
2024/01/05 02:43:26;;;;;;;14.23;5.30;;;;;;;3.48;100.00;99488.31;10398346;28;20045;-80
2024/01/05 02:48:26;;;;;;;11.30;5.07;;;;;;;3.32;100.00;99475.34;10415679;28;20492;-80
2024/01/05 02:53:27;;;;;;;12.50;4.95;;;;;;;3.22;100.00;99468.81;10408610;28;20043;-81
2024/01/05 02:58:27;;;;;;;5.65;2.45;;;;;;;3.20;100.00;99466.13;10439574;28;20561;-81
2024/01/05 03:03:28;;;;;;;6.88;3.13;;;;;;;3.19;100.00;99461.75;10414293;28;20156;-81
2024/01/05 03:08:28;;;;;;;9.65;4.25;;;;;;;3.17;100.00;99460.78;10407463;28;20561;-81
2024/01/05 03:13:29;;;;;;;7.70;3.88;;;;;;;3.27;100.00;99445.78;10411188;28;20033;-81
2024/01/05 03:18:29;;;;;;;9.77;3.92;;;;;;;3.37;100.00;99442.88;10408231;28;20115;-81
2024/01/05 03:23:30;;;;;;;9.35;4.03;;;;;;;3.21;100.00;99442.03;10405627;28;20045;-81
2024/01/05 03:28:31;;;;;;;7.47;3.60;;;;;;;3.22;100.00;99419.69;10405639;28;20114;-81
2024/01/05 03:33:32;;;;;;;11.60;4.73;;;;;;;3.22;100.00;99411.91;10444443;28;20032;-81
2024/01/05 03:38:32;;;;;;;7.75;3.42;;;;;;;3.20;100.00;99418.72;10470460;28;20502;-81
2024/01/05 03:43:33;;;;;;;6.78;3.40;;;;;;;3.15;100.00;99414.97;10442680;28;20052;-81
2024/01/05 03:48:33;;;;;;;8.80;3.15;;;;;;;3.17;100.00;99400.44;10442181;28;20129;-81
2024/01/05 03:53:34;;;;;;;8.55;4.10;;;;;;;3.21;100.00;99392.91;10449375;28;20140;-81
2024/01/05 03:58:34;;;;;;;9.38;3.85;;;;;;;3.23;100.00;99388.72;10436353;28;20132;-80
2024/01/05 04:03:35;;;;;;;8.80;3.85;;;;;;;3.38;100.00;99369.63;10405421;28;20045;-80
2024/01/05 04:08:38;;;;;;;17.98;4.47;;;;;;;3.62;100.00;99351.94;10410465;28;20076;-81
2024/01/05 04:13:39;;;;;;;9.38;3.80;;;;;;;3.82;100.00;99339.97;10416467;28;20037;-81
2024/01/05 04:18:39;;;;;;;11.25;4.97;;;;;;;3.69;100.00;99336.72;10434094;28;20215;-81
2024/01/05 04:23:41;;;;;;;12.10;4.03;;;;;;;3.62;100.00;99330.31;10438752;28;20048;-80
2024/01/05 04:28:41;;;;;;;7.22;3.42;;;;;;;3.47;100.00;99320.09;10474930;28;20094;-82
2024/01/05 04:33:42;;;;;;;26.13;7.82;;;;;;;3.45;100.00;99314.84;10460938;28;20033;-79
2024/01/05 04:38:42;;;;;;;9.05;3.28;;;;;;;3.46;100.00;99303.69;10475036;28;20041;-80
2024/01/05 04:43:44;;;;;;;16.38;6.53;;;;;;;3.51;100.00;99301.34;10449671;28;20434;-80
2024/01/05 04:48:44;;;;;;;14.13;5.10;;;;;;;3.86;100.00;99291.88;10449890;28;20043;-81
2024/01/05 04:53:46;;;;;;;9.30;3.08;;;;;;;3.94;100.00;99284.47;10466992;28;20286;-80
2024/01/05 04:58:46;;;;;;;7.55;3.10;;;;;;;4.11;100.00;99290.47;10462589;28;20102;-81
2024/01/05 05:03:47;;;;;;;15.88;4.38;;;;;;;4.07;100.00;99281.66;10480421;28;20115;-80
2024/01/05 05:08:47;;;;;;;12.88;4.03;;;;;;;4.43;100.00;99277.25;10453311;28;20124;-81
2024/01/05 05:13:48;;;;;;;8.35;3.22;;;;;;;4.57;100.00;99268.41;10460549;28;20045;-79
2024/01/05 05:18:49;;;;;;;15.98;4.32;;;;;;;4.80;100.00;99272.06;10474005;28;20071;-82
2024/01/05 05:23:49;;;;;;;7.10;2.85;;;;;;;4.88;100.00;99268.94;10465669;28;22168;-78
2024/01/05 05:28:50;;;;;;;9.95;3.45;;;;;;;4.98;100.00;99266.81;10452026;28;20491;-80
2024/01/05 05:33:50;;;;;;;7.70;2.60;;;;;;;5.12;100.00;99270.03;10449602;28;20123;-80
2024/01/05 05:38:51;;;;;;;10.48;2.72;;;;;;;5.18;100.00;99261.59;10494211;28;20127;-79
2024/01/05 05:43:51;;;;;;;5.25;2.15;;;;;;;5.31;100.00;99264.72;10463478;28;20108;-80
2024/01/05 05:48:52;;;;;;;11.55;2.65;;;;;;;5.32;100.00;99259.63;10465367;28;20032;-81
2024/01/05 05:53:53;;;;;;;5.35;3.05;;;;;;;5.32;100.00;99264.81;10435972;28;20041;-80
2024/01/05 05:58:53;;;;;;;7.70;2.95;;;;;;;5.62;100.00;99258.25;10406857;28;20125;-80
2024/01/05 06:03:54;;;;;;;7.40;2.88;;;;;;;5.81;100.00;99259.91;10451568;28;20494;-79
2024/01/05 06:08:55;;;;;;;9.45;3.15;;;;;;;5.71;100.00;99254.34;10466824;28;20053;-79
2024/01/05 06:13:56;;;;;;;4.97;1.90;;;;;;;5.60;100.00;99237.44;10460231;28;20132;-79
2024/01/05 06:18:56;;;;;;;6.97;2.13;;;;;;;5.51;100.00;99243.09;10430548;28;20060;-78
2024/01/05 06:23:57;;;;;;;7.38;2.47;;;;;;;5.46;100.00;99234.25;10406795;28;20132;-78
2024/01/05 06:28:57;;;;;;;4.70;1.67;;;;;;;5.63;100.00;99231.47;10398454;28;20037;-79
2024/01/05 06:33:58;;;;;;;6.20;2.65;;;;;;;5.72;100.00;99224.06;10408549;28;20490;-78
2024/01/05 06:38:59;;;;;;;4.90;3.00;;;;;;;6.08;100.00;99220.31;10398466;28;20041;-78
2024/01/05 06:43:59;;;;;;;3.63;1.30;;;;;;;6.21;100.00;99195.69;10418696;28;20041;-78
2024/01/05 06:49:00;;;;;;;7.22;3.15;;;;;;;6.29;100.00;99170.88;10459599;28;20075;-78
2024/01/05 06:54:01;;;;;;;3.97;1.40;;;;;;;6.37;100.00;99127.88;10452398;28;20045;-80
2024/01/05 06:59:02;;;;;;;2.47;0.80;;;;;;;6.56;100.00;99106.03;10452649;28;20076;-78
2024/01/05 07:04:03;;;;;;;1.75;0.28;;;;;;;6.54;100.00;99112.00;10467082;28;20049;-79
2024/01/05 07:09:04;;;;;;;1.23;0.47;;;;;;;6.56;100.00;99123.34;10448299;28;20106;-80
2024/01/05 07:14:04;;;;;;;0.35;0.20;;;;;;;6.37;100.00;99158.19;10453776;28;20132;-79
2024/01/05 07:19:05;;;;;;;5.45;0.40;;;;;;;6.48;100.00;99177.66;10462116;28;20059;-78
2024/01/05 07:24:05;;;;;;;0.98;0.40;;;;;;;6.56;100.00;99181.44;10453591;28;20120;-82
2024/01/05 07:29:06;;;;;;;1.50;0.90;;;;;;;6.54;100.00;99190.88;10428964;28;20509;-78
2024/01/05 07:34:07;;;;;;;0.22;0.13;;;;;;;6.57;100.00;99204.00;10462094;28;20048;-79
2024/01/05 07:39:12;;;;;;;0.95;0.40;;;;;;;6.54;100.00;99208.19;10460767;28;20071;-81
2024/01/05 07:44:12;;;;;;;0.77;0.60;;;;;;;6.51;100.00;99213.25;10485333;28;20049;-78
2024/01/05 07:49:15;;;;;;;0.73;0.40;;;;;;;6.61;100.00;99215.38;10444971;28;20123;-78
2024/01/05 07:54:16;;;;;;;0.45;0.20;;;;;;;6.61;100.00;99215.38;10450262;28;21952;-77
2024/01/05 07:59:19;;;;;;;0.75;0.40;;;;;;;6.59;100.00;99217.03;10432586;28;20124;-77
2024/01/05 08:04:20;;;;;;;5.47;0.57;;;;;;;6.53;100.00;99212.50;10423384;28;20385;-79
2024/01/05 08:09:20;;;;;;;0.10;0.10;;;;;;;6.43;100.00;99194.81;10429711;28;20044;-77
2024/01/05 08:14:21;;;;;;;0.40;0.38;;;;;;;6.43;100.00;99223.38;10473477;28;20076;-78
2024/01/05 08:19:21;;;;;;;1.23;0.45;;;;;;;6.41;100.00;99206.84;10426267;28;20483;-79
2024/01/05 08:24:22;;;;;;;1.45;0.75;;;;;;;6.32;100.00;99210.88;10447755;28;20051;-78
2024/01/05 08:29:23;;;;;;;0.73;0.30;;;;;;;6.30;100.00;99215.13;10433671;28;20092;-79
2024/01/05 08:34:23;;;;;;;0.93;0.40;;;;;;;6.34;100.00;99205.72;10427115;28;20127;-82
2024/01/05 08:39:32;;;;;;;3.25;0.65;;;;;;;6.38;100.00;99228.41;10439358;28;20132;-77
2024/01/05 08:44:34;;;;;;;1.45;0.68;;;;;;;6.32;100.00;99226.47;10458621;28;20129;-77
2024/01/05 08:49:34;;;;;;;3.10;1.00;;;;;;;6.37;100.00;99234.41;10469250;28;20560;-79
2024/01/05 08:54:37;;;;;;;2.38;0.50;;;;;;;6.39;100.00;99226.69;10433563;28;20276;-79
2024/01/05 08:59:39;;;;;;;0.70;0.30;;;;;;;6.26;100.00;99240.91;10418978;28;20040;-80
2024/01/05 09:04:42;;;;;;;3.38;0.90;;;;;;;6.21;100.00;99238.16;10431446;28;20119;-78
2024/01/05 09:09:42;;;;;;;2.55;1.33;;;;;;;6.15;100.00;99253.50;10465523;28;20036;-81
2024/01/05 09:14:43;;;;;;;0.70;0.40;;;;;;;6.12;100.00;99251.66;10464928;28;20502;-80
2024/01/05 09:19:44;;;;;;;1.20;0.45;;;;;;;6.13;100.00;99214.47;10426792;28;20124;-80
2024/01/05 09:24:45;;;;;;;3.90;1.42;;;;;;;6.23;100.00;99257.28;10430470;28;20584;-79
2024/01/05 09:29:45;;;;;;;1.55;0.70;;;;;;;6.41;100.00;99275.28;10455536;28;20044;-78
2024/01/05 09:34:53;;;;;;;6.05;0.98;;;;;;;6.52;100.00;99275.72;10442916;28;20132;-79
2024/01/05 09:39:56;;;;;;;1.52;0.73;;;;;;;6.60;100.00;99276.00;10441772;28;20049;-77
2024/01/05 09:44:57;;;;;;;2.33;0.45;;;;;;;6.46;100.00;99270.28;10444251;28;20045;-78
2024/01/05 09:49:59;;;;;;;2.38;1.05;;;;;;;6.41;100.00;99261.44;10428075;28;20049;-82
2024/01/05 09:54:59;;;;;;;0.55;0.43;;;;;;;6.30;100.00;99298.28;10401070;28;20057;-80
2024/01/05 10:00:03;;;;;;;2.40;0.50;;;;;;;6.23;100.00;99284.97;10417256;28;20133;-80
2024/01/05 10:05:04;;;;;;;2.95;1.80;;;;;;;6.20;100.00;99293.53;10453919;28;20048;-80
2024/01/05 10:10:04;;;;;;;2.13;0.82;;;;;;;6.23;100.00;99288.47;10440770;28;20124;-80
2024/01/05 10:15:06;;;;;;;2.63;0.80;;;;;;;6.31;100.00;99278.34;10440336;28;20097;-78
2024/01/05 10:20:16;;;;;;;1.75;0.90;;;;;;;6.44;100.00;99288.41;10457281;28;20033;-78
2024/01/05 10:25:18;;;;;;;2.13;1.17;;;;;;;6.54;100.00;99286.16;10457381;28;20500;-80
2024/01/05 10:30:23;;;;;;;;;;;;;;;6.52;100.00;99287.81;10440063;28;20037;-81
2024/01/05 10:35:24;;;;;;;4.25;1.00;;;;;;;6.57;100.00;99299.28;10442015;28;20404;-81
2024/01/05 10:40:25;;;;;;;3.03;0.93;;;;;;;6.50;100.00;99295.56;10456397;28;20131;-80
2024/01/05 10:45:25;;;;;;;1.58;0.70;;;;;;;6.48;100.00;99302.41;10441158;28;20033;-82
2024/01/05 10:50:26;;;;;;;3.15;0.95;;;;;;;6.34;100.00;99312.25;10439614;28;20116;-80
2024/01/05 10:55:27;;;;;;;1.83;0.90;;;;;;;6.11;100.00;99307.03;10438172;28;20119;-80
2024/01/05 11:00:28;;;;;;;4.17;1.77;;;;;;;6.06;100.00;99302.50;10443859;28;20400;-82
2024/01/05 11:05:28;;;;;;;4.13;1.65;;;;;;;6.22;100.00;99296.19;10451825;28;20066;-80
2024/01/05 11:10:40;;;;;;;1.85;0.80;;;;;;;6.27;100.00;99302.44;10420894;28;20087;-81
2024/01/05 11:15:56;;;;;;;1.92;0.82;;;;;;;6.29;100.00;99308.59;10446168;28;20049;-80
2024/01/05 11:21:19;;;;;;;2.17;1.00;;;;;;;6.29;100.00;99308.59;10433497;28;20137;-80
2024/01/05 11:26:39;;;;;;;7.28;1.67;;;;;;;6.28;100.00;99314.63;10435668;28;20067;-81
2024/01/05 11:31:45;;;;;;;5.55;1.45;;;;;;;6.24;100.00;99302.31;10419383;28;20099;-79
2024/01/05 11:36:48;;;;;;;6.22;2.25;;;;;;;6.23;100.00;99313.53;10475879;28;20562;-79
2024/01/05 11:41:49;;;;;;;5.60;1.33;;;;;;;6.19;100.00;99314.25;10441073;28;20053;-78
2024/01/05 11:46:50;;;;;;;6.82;1.70;;;;;;;6.15;100.00;99303.72;10434685;28;20526;-79
2024/01/05 11:51:51;;;;;;;6.70;1.50;;;;;;;6.07;100.00;99310.31;10439729;28;20140;-78
2024/01/05 11:56:54;;;;;;;3.90;2.13;;;;;;;6.08;100.00;99303.44;10437128;28;20243;-79
2024/01/05 12:01:55;;;;;;;3.67;0.93;;;;;;;6.16;100.00;99304.63;10429673;28;20099;-79
2024/01/05 12:06:56;;;;;;;4.10;1.17;;;;;;;6.16;100.00;99308.09;10438499;28;20061;-80
2024/01/05 12:12:17;;;;;;;2.60;1.10;;;;;;;6.23;100.00;99305.75;10446823;28;20404;-80
2024/01/05 12:17:18;;;;;;;8.18;1.08;;;;;;;6.32;100.00;99294.03;10443789;28;20137;-79
2024/01/05 12:22:18;;;;;;;3.78;2.55;;;;;;;6.26;100.00;99301.56;10446581;28;20044;-80
2024/01/05 12:27:19;;;;;;;7.35;1.45;;;;;;;6.33;100.00;99294.91;10444516;28;20124;-80
2024/01/05 12:32:22;;;;;;;5.20;1.83;;;;;;;6.35;100.00;99306.22;10445703;28;20124;-79
2024/01/05 12:37:23;;;;;;;7.03;1.75;;;;;;;6.27;100.00;99294.66;10442963;28;20130;-80
2024/01/05 12:42:24;;;;;;;6.10;3.08;;;;;;;6.24;100.00;99302.31;10444217;28;20124;-80
2024/01/05 12:47:28;;;;;;;4.30;1.80;;;;;;;6.12;100.00;99303.59;10460548;28;20037;-81
2024/01/05 12:52:36;;;;;;;5.90;2.15;;;;;;;5.94;100.00;99302.81;10444300;28;20041;-80
2024/01/05 12:57:37;;;;;;;6.20;1.80;;;;;;;5.85;100.00;99301.63;10442568;28;20037;-80
2024/01/05 13:02:38;;;;;;;6.05;2.10;;;;;;;5.87;100.00;99304.28;10446306;28;20174;-80
2024/01/05 13:07:38;;;;;;;5.30;2.80;;;;;;;5.85;100.00;99305.94;10426696;28;20033;-79
2024/01/05 13:12:40;;;;;;;16.25;1.88;;;;;;;5.77;100.00;99309.94;10426278;28;20453;-80
2024/01/05 13:17:46;;;;;;;5.43;2.40;;;;;;;5.59;100.00;99304.00;10444334;28;20045;-79
2024/01/05 13:22:46;;;;;;;4.55;2.13;;;;;;;5.40;100.00;99301.44;10440057;28;20029;-79
2024/01/05 13:27:47;;;;;;;3.70;2.15;;;;;;;5.40;100.00;99307.53;10444181;28;20128;-80
2024/01/05 13:32:49;;;;;;;3.60;1.65;;;;;;;5.48;100.00;99314.75;10457857;28;20155;-80
2024/01/05 13:37:49;;;;;;;3.17;2.22;;;;;;;5.57;100.00;99312.56;10442876;28;20037;-80
2024/01/05 13:42:50;;;;;;;4.55;2.50;;;;;;;5.61;100.00;99314.47;10443692;28;20112;-79
2024/01/05 13:47:53;;;;;;;3.55;1.92;;;;;;;5.68;100.00;99305.22;10440773;28;20416;-79
2024/01/05 13:52:55;;;;;;;5.20;2.65;;;;;;;5.68;100.00;99315.59;10442201;28;20144;-78
2024/01/05 13:57:56;;;;;;;4.50;2.25;;;;;;;5.65;100.00;99298.22;10443143;28;20037;-79
2024/01/05 14:02:56;;;;;;;3.47;2.15;;;;;;;5.64;100.00;99301.63;10442494;28;20037;-79
2024/01/05 14:07:57;;;;;;;4.30;2.00;;;;;;;5.73;100.00;99316.69;10440769;28;20072;-79
2024/01/05 14:12:59;;;;;;;4.18;1.83;;;;;;;5.76;100.00;99311.63;10441666;28;20099;-79
2024/01/05 14:17:59;;;;;;;4.25;2.08;;;;;;;5.80;100.00;99338.63;10456607;28;20124;-80
2024/01/05 14:23:00;;;;;;;3.25;2.17;;;;;;;5.82;100.00;99356.03;10456449;28;20119;-80
2024/01/05 14:28:01;;;;;;;2.53;1.60;;;;;;;5.88;100.00;99355.41;10456659;28;20037;-79
2024/01/05 14:33:01;;;;;;;6.72;2.17;;;;;;;5.84;100.00;99354.38;10456805;28;20036;-79
2024/01/05 14:38:02;;;;;;;6.15;2.63;;;;;;;5.90;100.00;99371.94;10438459;28;20037;-80
2024/01/05 14:43:03;;;;;;;3.92;2.35;;;;;;;5.85;100.00;99387.31;10441637;28;20045;-79
2024/01/05 14:48:04;;;;;;;5.45;3.00;;;;;;;5.80;100.00;99369.78;10442179;28;21272;-79
2024/01/05 14:53:04;;;;;;;3.83;1.90;;;;;;;5.60;100.00;99387.97;10441133;28;20041;-79
2024/01/05 14:58:06;;;;;;;6.85;2.63;;;;;;;5.40;100.00;99402.63;10456744;28;20112;-79
2024/01/05 15:03:06;;;;;;;6.32;3.20;;;;;;;5.26;100.00;99404.63;10440488;28;20520;-79
2024/01/05 15:08:07;;;;;;;3.60;2.58;;;;;;;5.16;100.00;99412.81;10458248;28;20140;-78
2024/01/05 15:13:08;;;;;;;7.80;3.17;;;;;;;5.03;100.00;99432.09;10421226;28;20075;-78
2024/01/05 15:18:08;;;;;;;5.90;3.28;;;;;;;4.91;100.00;99428.09;10454342;28;20133;-77
2024/01/05 15:23:09;;;;;;;7.35;3.97;;;;;;;4.85;100.00;99448.53;10420647;28;20077;-81
2024/01/05 15:28:10;;;;;;;6.13;2.75;;;;;;;4.81;100.00;99442.34;10414296;28;20472;-77
2024/01/05 15:33:10;;;;;;;8.60;4.20;;;;;;;4.81;100.00;99457.00;10464006;28;20607;-76
2024/01/05 15:38:11;;;;;;;5.82;3.22;;;;;;;4.72;100.00;99461.72;10397286;28;20128;-75
2024/01/05 15:43:11;;;;;;;15.55;3.83;;;;;;;4.69;100.00;99465.94;10395867;28;20627;-75
2024/01/05 15:48:18;;;;;;;9.38;4.30;;;;;;;4.65;100.00;99470.94;10397452;28;20061;-77
2024/01/05 15:53:18;;;;;;;12.52;5.90;;;;;;;4.62;100.00;99475.97;10446771;28;20037;-75
2024/01/05 15:58:19;;;;;;;8.73;5.25;;;;;;;4.60;100.00;99488.81;10466500;28;20467;-75
2024/01/05 16:03:20;;;;;;;8.80;4.55;;;;;;;4.58;100.00;99487.00;10449840;28;20068;-74
2024/01/05 16:08:20;;;;;;;10.45;5.47;;;;;;;4.57;100.00;99487.81;10445796;28;20045;-76
2024/01/05 16:13:21;;;;;;;9.00;4.70;;;;;;;4.53;100.00;99510.97;10447541;28;20550;-75
2024/01/05 16:18:21;;;;;;;8.75;5.03;;;;;;;4.51;100.00;99512.59;10443175;28;20060;-76
2024/01/05 16:23:22;;;;;;;7.35;4.53;;;;;;;4.47;100.00;99513.25;10442220;28;20048;-76
2024/01/05 16:28:22;;;;;;;10.85;5.75;;;;;;;4.48;100.00;99519.31;10404808;28;20037;-78
2024/01/05 16:33:23;;;;;;;7.53;5.55;;;;;;;4.50;100.00;99526.38;10402155;28;20068;-78
2024/01/05 16:38:23;;;;;;;9.32;4.55;;;;;;;4.51;100.00;99535.00;10408354;28;20438;-77
2024/01/05 16:43:24;;;;;;;7.97;5.38;;;;;;;4.54;100.00;99538.66;10421244;28;20128;-76
2024/01/05 16:48:24;;;;;;;12.57;4.88;;;;;;;4.52;100.00;99536.78;10407804;28;20124;-79
2024/01/05 16:53:25;;;;;;;9.38;6.00;;;;;;;4.57;100.00;99553.47;10408405;28;20386;-77
2024/01/05 16:58:26;;;;;;;10.10;6.32;;;;;;;4.61;100.00;99563.16;10420695;28;20045;-77
2024/01/05 17:03:26;;;;;;;9.10;6.43;;;;;;;4.64;100.00;99557.25;10402920;28;20093;-78
2024/01/05 17:08:27;;;;;;;7.05;4.90;;;;;;;4.66;100.00;99558.22;10419374;28;20041;-79
2024/01/05 17:13:27;;;;;;;7.95;4.78;;;;;;;4.64;100.00;99562.44;10404328;28;20061;-79
2024/01/05 17:18:28;;;;;;;8.77;5.97;;;;;;;4.65;100.00;99570.28;10415989;28;20069;-79
2024/01/05 17:23:28;;;;;;;7.25;5.35;;;;;;;4.65;100.00;99572.88;10435230;28;20041;-79
2024/01/05 17:28:29;;;;;;;8.32;4.78;;;;;;;4.65;100.00;99577.19;10402728;28;20033;-78
2024/01/05 17:33:29;;;;;;;10.60;4.88;;;;;;;4.59;100.00;99595.88;10415688;28;20148;-79
2024/01/05 17:38:30;;;;;;;7.35;4.70;;;;;;;4.61;100.00;99596.84;10438091;28;20045;-79
2024/01/05 17:43:30;;;;;;;8.18;4.82;;;;;;;4.61;100.00;99601.16;10417713;28;20603;-81
2024/01/05 17:48:31;;;;;;;9.98;5.55;;;;;;;4.59;100.00;99600.19;10452662;28;20040;-78
2024/01/05 17:53:32;;;;;;;6.73;4.70;;;;;;;4.58;100.00;99607.06;10445389;28;20048;-78
2024/01/05 17:58:32;;;;;;;6.90;4.47;;;;;;;4.54;100.00;99613.81;10430323;28;20448;-79
2024/01/05 18:03:33;;;;;;;10.35;5.40;;;;;;;4.53;100.00;99618.91;10436551;28;20094;-77
2024/01/05 18:08:34;;;;;;;9.57;6.03;;;;;;;4.52;100.00;99622.31;10456929;28;20580;-79
2024/01/05 18:13:34;;;;;;;7.28;4.38;;;;;;;4.51;100.00;99630.88;10422855;28;20131;-77
2024/01/05 18:18:38;;;;;;;6.40;4.47;;;;;;;4.50;100.00;99639.47;10455126;28;20064;-78
2024/01/05 18:23:38;;;;;;;7.68;5.82;;;;;;;4.46;100.00;99648.78;10450659;28;20049;-78
2024/01/05 18:28:39;;;;;;;11.10;5.82;;;;;;;4.46;100.00;99655.66;10399399;28;20405;-78
2024/01/05 18:33:41;;;;;;;12.40;6.80;;;;;;;4.46;100.00;99656.56;10400432;28;20045;-78
2024/01/05 18:38:42;;;;;;;9.55;6.80;;;;;;;4.50;100.00;99657.59;10399774;28;20103;-78
2024/01/05 18:43:42;;;;;;;9.68;7.25;;;;;;;4.53;100.00;99669.03;10399359;28;20176;-77
2024/01/05 18:48:43;;;;;;;11.02;7.47;;;;;;;4.59;100.00;99675.34;10399242;28;20038;-77
2024/01/05 18:53:44;;;;;;;14.30;8.60;;;;;;;4.61;100.00;99679.78;10364768;28;20034;-78
2024/01/05 18:58:44;;;;;;;16.95;10.00;;;;;;;4.65;100.00;99681.72;10397379;28;20046;-77
2024/01/05 19:03:45;;;;;;;12.23;8.30;;;;;;;4.69;100.00;99683.66;10404542;28;20139;-78
2024/01/05 19:08:45;;;;;;;13.43;9.57;;;;;;;4.71;100.00;99696.72;10442806;28;20037;-78
2024/01/05 19:13:46;;;;;;;13.27;8.10;;;;;;;4.74;100.00;99704.66;10456252;28;20126;-79
2024/01/05 19:18:46;;;;;;;11.52;10.13;;;;;;;4.79;100.00;99712.66;10439463;28;20124;-78
2024/01/05 19:23:47;;;;;;;12.90;9.50;;;;;;;4.76;100.00;99728.97;10440991;28;20120;-78
2024/01/05 19:28:47;;;;;;;13.25;9.30;;;;;;;4.79;100.00;99730.81;10429995;28;20595;-79
2024/01/05 19:33:48;;;;;;;18.58;8.40;;;;;;;4.74;100.00;99728.00;10449383;28;20124;-78
2024/01/05 19:38:49;;;;;;;13.65;9.50;;;;;;;4.78;100.00;99735.13;10447054;28;20064;-78
2024/01/05 19:43:49;;;;;;;15.95;9.45;;;;;;;4.80;100.00;99741.28;10446221;28;20124;-78
2024/01/05 19:48:49;;;;;;;21.55;10.43;;;;;;;4.82;100.00;99747.44;10448333;28;20498;-78
2024/01/05 19:53:50;;;;;;;13.55;9.32;;;;;;;4.87;100.00;99754.56;10447537;28;20131;-78
2024/01/05 19:58:51;;;;;;;16.02;9.35;;;;;;;4.87;100.00;99742.47;10447626;28;20120;-78
2024/01/05 20:03:51;;;;;;;12.05;8.20;;;;;;;4.83;100.00;99746.63;10446758;28;20377;-77
2024/01/05 20:08:52;;;;;;;13.65;9.05;;;;;;;4.87;100.00;99751.97;10447054;28;20071;-78
2024/01/05 20:13:52;;;;;;;10.55;8.13;;;;;;;4.88;100.00;99780.56;10446442;28;20064;-77
2024/01/05 20:18:53;;;;;;;11.02;8.38;;;;;;;4.87;100.00;99786.56;10461846;28;20161;-78
2024/01/05 20:23:53;;;;;;;15.98;8.45;;;;;;;4.87;100.00;99788.28;10479708;28;20187;-78
2024/01/05 20:28:54;;;;;;;11.48;9.45;;;;;;;4.85;100.00;99789.09;10485346;28;20040;-78
2024/01/05 20:33:55;;;;;;;11.65;8.18;;;;;;;4.88;100.00;99793.53;10443167;28;20194;-79
2024/01/05 20:38:55;;;;;;;12.55;9.40;;;;;;;4.87;100.00;99790.88;10411285;28;20045;-79
2024/01/05 20:43:56;;;;;;;12.10;9.45;;;;;;;4.85;100.00;99795.94;10435152;28;20043;-79
2024/01/05 20:48:58;;;;;;;12.80;8.93;;;;;;;4.81;100.00;99791.41;10461134;28;20048;-79
2024/01/05 20:54:00;;;;;;;16.70;11.97;;;;;;;4.80;100.00;99797.41;10415838;28;20041;-78
2024/01/05 20:59:01;;;;;;;16.80;11.45;;;;;;;4.79;100.00;99796.53;10433291;28;20272;-78
2024/01/05 21:04:02;;;;;;;15.88;11.70;;;;;;;4.78;100.00;99799.94;10410493;28;20117;-81
2024/01/05 21:09:04;;;;;;;18.17;11.98;;;;;;;4.78;100.00;99794.75;10434523;28;20049;-79
2024/01/05 21:14:05;;;;;;;18.08;12.05;;;;;;;4.80;100.00;99802.59;10411829;28;20045;-80
2024/01/05 21:19:05;;;;;;;18.15;12.90;;;;;;;4.78;100.00;99799.94;10436016;28;20080;-78
2024/01/05 21:24:07;;;;;;;19.83;13.10;;;;;;;4.77;100.00;99810.22;10400610;28;20129;-78
2024/01/05 21:29:07;;;;;;;20.92;16.27;;;;;;;4.76;100.00;99811.91;10406810;28;20041;-78
2024/01/05 21:34:08;;;;;;;22.38;15.35;;;;;;;4.80;100.00;99812.97;10414979;28;20042;-77
2024/01/05 21:39:10;;;;;;;22.10;14.98;;;;;;;4.81;100.00;99807.88;10444947;28;20511;-79
2024/01/05 21:44:10;;;;;;;23.58;15.50;;;;;;;4.81;100.00;99817.34;10431481;28;20045;-77
2024/01/05 21:49:11;;;;;;;23.83;16.70;;;;;;;4.80;100.00;99815.56;10405941;28;20084;-77
2024/01/05 21:54:12;;;;;;;21.48;15.60;;;;;;;4.77;100.00;99816.28;10441964;28;20052;-77
2024/01/05 21:59:13;;;;;;;19.60;14.77;;;;;;;4.74;100.00;99830.78;10443724;28;20033;-78
2024/01/05 22:04:14;;;;;;;22.17;17.45;;;;;;;4.69;100.00;99828.81;10417059;28;20068;-77
2024/01/05 22:09:15;;;;;;;29.05;18.55;;;;;;;4.67;100.00;99843.41;10404378;28;20041;-78
2024/01/05 22:14:18;;;;;;;30.63;18.65;;;;;;;4.65;100.00;99849.31;10414588;28;20384;-78
2024/01/05 22:19:22;;;;;;;26.08;18.52;;;;;;;4.68;100.00;99860.75;10422557;28;20033;-78
2024/01/05 22:24:23;;;;;;;28.70;19.30;;;;;;;4.69;100.00;99875.47;10445681;28;20029;-78
2024/01/05 22:29:25;;;;;;;31.92;20.20;;;;;;;4.72;100.00;99877.38;10402028;28;20068;-79
2024/01/05 22:34:30;;;;;;;30.20;19.27;;;;;;;4.70;100.00;99874.69;10394116;28;20045;-78
2024/01/05 22:39:36;;;;;;;27.40;20.60;;;;;;;4.70;100.00;99885.03;10432462;28;20147;-78
2024/01/05 22:44:41;;;;;;;28.10;21.23;;;;;;;4.71;100.00;99896.31;10415846;28;20040;-78
2024/01/05 22:49:42;;;;;;;27.33;20.25;;;;;;;4.73;100.00;99901.56;10382905;28;20038;-78
2024/01/05 22:54:42;;;;;;;34.53;24.90;;;;;;;4.73;100.00;99904.16;10398353;28;20059;-80
2024/01/05 22:59:43;;;;;;;30.50;22.27;;;;;;;4.73;100.00;99907.66;10423111;28;20119;-79
2024/01/05 23:04:43;;;;;;;29.88;21.55;;;;;;;4.75;100.00;99907.75;10418046;28;20485;-79
2024/01/05 23:09:44;;;;;;;30.77;22.83;;;;;;;4.77;100.00;99921.69;10408335;28;20102;-79
2024/01/05 23:14:45;;;;;;;33.75;23.30;;;;;;;4.77;100.00;99919.09;10405563;28;20060;-80